International Virtual Aviation Organisation

Russian Federation and Kazakhstan MCD

 

Карточка аэропорта UUDD

Внимание!
Информация на этой странице в стадии наполнения.
Если вы не увидели какой-то информации, или заметили неточность - пожалуйста сообщите нам!
Спасибо!
Команда RU-STAFF
Название аэропортаДомодедово
Название аэропорта (англ.)Domodedovo
Превышение594 ft. (181.1 m.)
Координаты55°24.516', 37°54.384'
Высота перехода1200 m
Эшелон переходаBy ATC
Коды ответчика1540-1577
Зона ОрВДМосква РПИ (UUWV)
Данные METARUUDD 241500Z 22003MPS CAVOK 03/M03 Q0995 R88/190060 NOSIG
Проноз погоды (TAF)UUDD 241357Z 2415/2521 23003G08MPS 9999 BKN016 TX02/2415Z TNM05/2521Z TEMPO 2415/2506 3100 -SHSN FEW006 SCT012CB BECMG 2419/2421 30006G12MPS BECMG 2515/2517 23003MPS
NOTAMshow/hide NOTAM
AWOS   TABLE

Информация о ВПП

ВПП Длина ВПП (м.) Покрытие Курс ВПП Частота ILS
14L2370Железобетон135 
32R2370Железобетон315 
14R3500Цементобетон135110.1
32L3500Цементобетон315109.3
143800Цементобетон135108.5
323800Цементобетон315111.9

Диспетчерские позиции

Позывной Наименование органа УВД Частота
UUDD_R_APPДомодедово-Круг127.700
UUDD_TWRДомодедово-Вышка118.600
UUDD_TWRДомодедово-Вышка119.700
UUDD_DELДомодедово-Деливери 129.150
UUDD_GNDДомодедово-Перрон119.000
UUDD_GNDДомодедово-Перрон123.750
UUDDFM1



Спутниковое изображение